Time;durP1;ratioP1;P1;durP2;ratioP2;P2;SDS_P1;SDS_P2;PMS_P1;PMS_P2;Temp;Humidity;BMP_temperature;BMP_pressure;BME280_temperature;BME280_humidity;BME280_pressure;Samples;Min_cycle;Max_cycle;Signal;HPM_P1;HPM_P2
2023/09/28 00:01:31;;;;;;;0.40;0.30;;;13.30;99.90;;;;;;5003843;28;20942;-81
2023/09/28 00:03:57;;;;;;;1.23;1.13;;;;;;;;;;5001122;28;20504;-77
2023/09/28 00:06:22;;;;;;;0.60;0.60;;;13.20;99.90;;;;;;4999735;28;20206;-83
2023/09/28 00:08:48;;;;;;;2.50;2.30;;;13.00;99.90;;;;;;5000831;28;20538;-83
2023/09/28 00:11:14;;;;;;;0.40;0.30;;;;;;;;;;5004057;28;21033;-82
2023/09/28 00:13:40;;;;;;;0.40;0.40;;;;;;;;;;4999235;28;20177;-81
2023/09/28 00:16:06;;;;;;;0.40;0.20;;;13.20;99.90;;;;;;4997158;28;20453;-79
2023/09/28 00:18:32;;;;;;;0.40;0.30;;;;;;;;;;4981444;28;20644;-81
2023/09/28 00:20:58;;;;;;;0.83;0.83;;;;;;;;;;5000388;28;20505;-78
2023/09/28 00:23:24;;;;;;;0.40;0.20;;;;;;;;;;4973591;28;20940;-82
2023/09/28 00:25:51;;;;;;;0.40;0.30;;;;;;;;;;4996415;28;20436;-80
2023/09/28 00:28:16;;;;;;;0.47;0.43;;;13.00;99.90;;;;;;5001496;28;20582;-82
2023/09/28 00:30:42;;;;;;;2.00;0.43;;;;;;;;;;5001529;28;20492;-82
2023/09/28 00:33:08;;;;;;;0.70;0.70;;;;;;;;;;4987049;28;20249;-82
2023/09/28 00:35:34;;;;;;;0.60;0.50;;;;;;;;;;4999698;28;20444;-81
2023/09/28 00:38:00;;;;;;;0.87;0.87;;;;;;;;;;4983438;28;20465;-80
2023/09/28 00:40:31;;;;;;;0.50;0.50;;;;;;;;;;4990111;28;20448;-75
2023/09/28 00:42:57;;;;;;;0.50;0.50;;;12.90;99.90;;;;;;4982034;28;20457;-81
2023/09/28 00:45:24;;;;;;;0.40;0.30;;;12.90;99.90;;;;;;4992800;28;20437;-82
2023/09/28 00:47:51;;;;;;;3.72;2.25;;;12.90;99.90;;;;;;5000482;28;20484;-79
2023/09/28 00:50:18;;;;;;;1.47;1.40;;;12.90;99.90;;;;;;4995038;28;20205;-80
2023/09/28 00:53:08;;;;;;;0.40;0.30;;;12.90;99.90;;;;;;4979973;28;20437;-80
2023/09/28 00:55:33;;;;;;;0.60;0.60;;;12.80;99.90;;;;;;4989794;28;20460;-82
2023/09/28 00:58:01;;;;;;;0.40;0.30;;;12.90;99.90;;;;;;5002966;28;21082;-77
2023/09/28 01:00:33;;;;;;;0.60;0.40;;;12.70;99.90;;;;;;5006598;28;20533;-75
2023/09/28 01:03:05;;;;;;;0.50;0.30;;;12.80;99.90;;;;;;5000002;28;20186;-79
2023/09/28 01:05:33;;;;;;;0.50;0.40;;;12.80;99.90;;;;;;4999336;28;20187;-82
2023/09/28 01:08:18;;;;;;;0.40;0.20;;;13.00;99.90;;;;;;4994759;28;20218;-78
2023/09/28 01:10:45;;;;;;;2.35;1.75;;;12.70;99.90;;;;;;5002012;28;21783;-83
2023/09/28 01:13:12;;;;;;;0.50;0.50;;;12.80;99.90;;;;;;5000321;28;20316;-81
2023/09/28 01:15:39;;;;;;;0.40;0.30;;;12.80;99.90;;;;;;5000285;28;20437;-80
2023/09/28 01:18:09;;;;;;;0.60;0.50;;;12.80;99.90;;;;;;4984963;28;20540;-82
2023/09/28 01:20:36;;;;;;;1.25;1.17;;;;;;;;;;4994371;28;20473;-82
2023/09/28 01:23:06;;;;;;;0.67;0.50;;;13.10;99.90;;;;;;5003348;28;20192;-83
2023/09/28 01:25:33;;;;;;;0.73;0.60;;;13.00;99.90;;;;;;4983339;28;20449;-80
2023/09/28 01:27:59;;;;;;;0.50;0.50;;;13.10;99.90;;;;;;4985623;28;20226;-81
2023/09/28 01:30:25;;;;;;;0.68;0.60;;;13.00;99.90;;;;;;4997553;28;22334;-78
2023/09/28 01:32:52;;;;;;;0.40;0.30;;;;;;;;;;4986927;28;20210;-83
2023/09/28 01:35:18;;;;;;;0.40;0.27;;;12.90;99.90;;;;;;4996029;28;20512;-81
2023/09/28 01:38:09;;;;;;;0.40;0.30;;;13.00;99.90;;;;;;5004118;28;21330;-78
2023/09/28 01:40:35;;;;;;;0.40;0.30;;;;;;;;;;4997264;28;20221;-77
2023/09/28 01:43:02;;;;;;;0.40;0.40;;;13.10;99.90;;;;;;4982149;28;20461;-79
2023/09/28 01:45:28;;;;;;;0.50;0.30;;;;;;;;;;4994056;28;20447;-77
2023/09/28 01:47:54;;;;;;;0.60;0.55;;;;;;;;;;4988756;28;20222;-77
2023/09/28 01:50:21;;;;;;;0.50;0.40;;;;;;;;;;5005286;28;20202;-81
2023/09/28 01:52:47;;;;;;;0.50;0.50;;;;;;;;;;4996922;28;20437;-83
2023/09/28 01:55:13;;;;;;;0.40;0.20;;;;;;;;;;4976331;28;20472;-79
2023/09/28 01:57:39;;;;;;;1.40;1.30;;;;;;;;;;4996085;28;20461;-79
2023/09/28 02:00:18;;;;;;;0.40;0.20;;;13.20;99.90;;;;;;4982304;28;20433;-79
2023/09/28 02:02:44;;;;;;;0.77;0.73;;;;;;;;;;4996227;28;20706;-78
2023/09/28 02:05:13;;;;;;;0.40;0.20;;;;;;;;;;4998195;28;20437;-78
2023/09/28 02:07:39;;;;;;;0.40;0.20;;;;;;;;;;4980102;28;20571;-81
2023/09/28 02:10:06;;;;;;;1.50;1.13;;;;;;;;;;4998072;28;20465;-80
2023/09/28 02:12:32;;;;;;;1.00;0.57;;;13.30;99.90;;;;;;5000689;28;20557;-83
2023/09/28 02:15:00;;;;;;;0.53;0.50;;;13.20;99.90;;;;;;5000009;28;21262;-80
2023/09/28 02:17:28;;;;;;;0.90;0.90;;;13.30;99.90;;;;;;5002296;28;20455;-81
2023/09/28 02:19:53;;;;;;;0.50;0.50;;;13.30;99.90;;;;;;4997040;28;21394;-83
2023/09/28 02:22:19;;;;;;;0.40;0.20;;;;;;;;;;5000625;28;20449;-77
2023/09/28 02:24:46;;;;;;;0.40;0.30;;;;;;;;;;4978296;28;20221;-78
2023/09/28 02:27:12;;;;;;;1.57;1.47;;;12.90;99.90;;;;;;4993615;28;20484;-83
2023/09/28 02:29:38;;;;;;;0.40;0.40;;;;;;;;;;4992940;28;20437;-79
2023/09/28 02:32:04;;;;;;;0.40;0.30;;;;;;;;;;4978926;28;20448;-79
2023/09/28 02:34:33;;;;;;;0.40;0.30;;;13.00;99.90;;;;;;4988945;28;20438;-78
2023/09/28 02:37:01;;;;;;;0.97;0.80;;;;;;;;;;4982497;28;21188;-79
2023/09/28 02:39:28;;;;;;;0.40;0.30;;;;;;;;;;4984493;28;20452;-80
2023/09/28 02:41:54;;;;;;;0.40;0.40;;;;;;;;;;4981511;28;20445;-79
2023/09/28 02:44:20;;;;;;;1.27;0.53;;;;;;;;;;4988119;28;20568;-77
2023/09/28 02:46:46;;;;;;;0.40;0.20;;;;;;;;;;5003601;28;20564;-77
2023/09/28 02:49:12;;;;;;;0.93;0.93;;;;;;;;;;4979422;28;20437;-79
2023/09/28 02:51:38;;;;;;;0.97;0.87;;;;;;;;;;4979651;28;21001;-77
2023/09/28 02:54:03;;;;;;;0.67;0.67;;;12.90;99.90;;;;;;4985666;28;20496;-78
2023/09/28 02:56:30;;;;;;;1.80;0.93;;;;;;;;;;5011439;28;20484;-81
2023/09/28 02:58:56;;;;;;;0.40;0.40;;;13.00;99.90;;;;;;4998807;28;20603;-81
2023/09/28 03:01:22;;;;;;;1.17;1.17;;;;;;;;;;4997048;28;20477;-80
2023/09/28 03:03:50;;;;;;;1.37;1.27;;;;;;;;;;4979824;28;20469;-79
2023/09/28 03:06:16;;;;;;;1.30;1.20;;;;;;;;;;4976432;28;20500;-82
2023/09/28 03:08:42;;;;;;;0.87;0.87;;;;;;;;;;4991960;28;20904;-81
2023/09/28 03:11:07;;;;;;;0.60;0.60;;;;;;;;;;4981722;28;20465;-79
2023/09/28 03:13:33;;;;;;;1.23;1.13;;;;;;;;;;5000050;28;20464;-76
2023/09/28 03:16:00;;;;;;;0.40;0.33;;;13.30;99.90;;;;;;5001927;28;20441;-82
2023/09/28 03:18:26;;;;;;;1.33;1.23;;;;;;;;;;4995410;28;20461;-79
2023/09/28 03:20:53;;;;;;;0.77;0.77;;;13.30;99.90;;;;;;4981664;28;20472;-82
2023/09/28 03:23:19;;;;;;;1.17;1.03;;;;;;;;;;4984604;28;20969;-77
2023/09/28 03:25:45;;;;;;;0.40;0.30;;;13.20;99.90;;;;;;5002227;28;20575;-79
2023/09/28 03:28:11;;;;;;;1.27;1.17;;;;;;;;;;4982713;28;20474;-76
2023/09/28 03:30:37;;;;;;;1.43;1.17;;;;;;;;;;4997839;28;20809;-80
2023/09/28 03:33:03;;;;;;;0.80;0.80;;;;;;;;;;4981507;28;20445;-82
2023/09/28 03:35:29;;;;;;;0.40;0.27;;;;;;;;;;4979197;28;20526;-79
2023/09/28 03:37:58;;;;;;;0.50;0.40;;;;;;;;;;4977836;28;20453;-76
2023/09/28 03:40:24;;;;;;;0.60;0.47;;;;;;;;;;4998245;28;20487;-80
2023/09/28 03:42:50;;;;;;;0.40;0.30;;;;;;;;;;4979151;28;20453;-81
2023/09/28 03:45:21;;;;;;;0.50;0.30;;;13.30;99.90;;;;;;4979371;28;20877;-80
2023/09/28 03:47:51;;;;;;;0.40;0.40;;;13.30;99.90;;;;;;4980881;28;20476;-80
2023/09/28 03:50:18;;;;;;;0.70;0.70;;;;;;;;;;4995564;28;20518;-77
2023/09/28 03:52:46;;;;;;;0.50;0.40;;;13.30;99.90;;;;;;4991880;28;20673;-81
2023/09/28 03:55:18;;;;;;;0.70;0.70;;;13.40;99.90;;;;;;5000802;28;20444;-78
2023/09/28 03:57:44;;;;;;;0.40;0.30;;;;;;;;;;4982703;28;20472;-80
2023/09/28 04:00:13;;;;;;;0.40;0.20;;;13.50;99.90;;;;;;4976411;28;20453;-75
2023/09/28 04:02:41;;;;;;;1.33;1.23;;;13.50;99.90;;;;;;5002262;28;20442;-76
2023/09/28 04:05:08;;;;;;;1.57;1.03;;;13.50;99.90;;;;;;5003708;28;21104;-78
2023/09/28 04:07:34;;;;;;;0.40;0.30;;;;;;;;;;4982651;28;21114;-84
2023/09/28 04:09:59;;;;;;;0.40;0.40;;;13.30;99.90;;;;;;4997045;28;20448;-82
2023/09/28 04:12:25;;;;;;;1.37;0.97;;;13.70;99.90;;;;;;5000507;28;20458;-79
2023/09/28 04:14:51;;;;;;;0.70;0.70;;;13.50;99.90;;;;;;4997836;28;20190;-81
2023/09/28 04:17:17;;;;;;;3.80;1.70;;;;;;;;;;4998521;28;20470;-79
2023/09/28 04:19:43;;;;;;;0.60;0.60;;;;;;;;;;5002114;28;20684;-78
2023/09/28 04:22:09;;;;;;;1.37;1.07;;;;;;;;;;5002752;28;20448;-83
2023/09/28 04:24:35;;;;;;;0.40;0.30;;;13.70;99.90;;;;;;5000532;28;20449;-83
2023/09/28 04:27:01;;;;;;;1.00;0.77;;;;;;;;;;4988479;28;20214;-80
2023/09/28 04:29:27;;;;;;;0.40;0.30;;;;;;;;;;5004388;28;20189;-81
2023/09/28 04:31:56;;;;;;;0.43;0.43;;;;;;;;;;5002134;28;20568;-82
2023/09/28 04:34:23;;;;;;;0.50;0.40;;;;;;;;;;5004367;28;20455;-80
2023/09/28 04:36:50;;;;;;;0.50;0.40;;;13.30;99.90;;;;;;5001680;28;20468;-81
2023/09/28 04:39:17;;;;;;;0.83;0.80;;;;;;;;;;4999256;28;20457;-81
2023/09/28 04:41:43;;;;;;;0.40;0.20;;;13.40;99.90;;;;;;4991058;28;20438;-82
2023/09/28 04:44:09;;;;;;;0.98;0.70;;;;;;;;;;4999580;28;20194;-79
2023/09/28 04:46:35;;;;;;;0.70;0.68;;;;;;;;;;5000682;28;21049;-79
2023/09/28 04:49:01;;;;;;;0.40;0.33;;;;;;;;;;5002320;28;20271;-79
2023/09/28 04:51:28;;;;;;;0.50;0.43;;;;;;;;;;5001271;28;21405;-81
2023/09/28 04:53:55;;;;;;;0.67;0.67;;;;;;;;;;4985953;28;20456;-82
2023/09/28 04:56:20;;;;;;;0.40;0.30;;;13.70;99.90;;;;;;5005260;28;20471;-82
2023/09/28 04:58:46;;;;;;;0.47;0.33;;;;;;;;;;5004582;28;20955;-77
2023/09/28 05:01:12;;;;;;;1.00;0.40;;;;;;;;;;4987814;28;20220;-80
2023/09/28 05:03:38;;;;;;;0.40;0.30;;;;;;;;;;5007657;28;20437;-79
2023/09/28 05:06:05;;;;;;;0.70;0.40;;;;;;;;;;4999216;28;20462;-80
2023/09/28 05:08:31;;;;;;;2.00;1.53;;;13.70;99.90;;;;;;4987086;28;20469;-81
2023/09/28 05:10:57;;;;;;;0.50;0.40;;;13.90;99.90;;;;;;5012779;28;20458;-79
2023/09/28 05:13:24;;;;;;;0.40;0.40;;;13.80;99.90;;;;;;5008125;28;20452;-81
2023/09/28 05:15:50;;;;;;;0.70;0.60;;;;;;;;;;5005507;28;20461;-81
2023/09/28 05:18:16;;;;;;;1.00;0.90;;;;;;;;;;4986030;28;20468;-81
2023/09/28 05:20:41;;;;;;;0.73;0.73;;;;;;;;;;4985534;28;20471;-80
2023/09/28 05:23:07;;;;;;;1.90;1.80;;;13.70;99.90;;;;;;4984773;28;20437;-82
2023/09/28 05:25:34;;;;;;;0.40;0.30;;;;;;;;;;5001913;28;20513;-75
2023/09/28 05:28:00;;;;;;;0.70;0.40;;;13.70;99.90;;;;;;5002809;28;20291;-82
2023/09/28 05:30:26;;;;;;;0.40;0.30;;;;;;;;;;5001634;28;20472;-77
2023/09/28 05:32:52;;;;;;;0.50;0.40;;;;;;;;;;5003775;28;20506;-79
2023/09/28 05:35:19;;;;;;;1.27;1.07;;;;;;;;;;4986699;28;20453;-81
2023/09/28 05:37:45;;;;;;;0.40;0.30;;;;;;;;;;5001953;28;20449;-83
2023/09/28 05:40:11;;;;;;;0.40;0.30;;;;;;;;;;5001296;28;22980;-79
2023/09/28 05:42:37;;;;;;;0.40;0.30;;;;;;;;;;4987499;28;20491;-79
2023/09/28 05:45:03;;;;;;;0.40;0.30;;;;;;;;;;4985581;28;20480;-79
2023/09/28 05:47:29;;;;;;;1.13;1.13;;;;;;;;;;4996566;28;20560;-81
2023/09/28 05:49:55;;;;;;;8.23;1.33;;;;;;;;;;5003435;28;20477;-80
2023/09/28 05:52:22;;;;;;;0.53;0.53;;;;;;;;;;5002351;28;20443;-78
2023/09/28 05:54:49;;;;;;;2.77;2.30;;;;;;;;;;4989577;28;20429;-78
2023/09/28 05:57:16;;;;;;;1.70;1.47;;;;;;;;;;5005006;28;20564;-76
2023/09/28 05:59:42;;;;;;;3.30;2.30;;;;;;;;;;4986312;28;21228;-80
2023/09/28 06:02:08;;;;;;;0.80;0.50;;;;;;;;;;4985737;28;20540;-81
2023/09/28 06:04:34;;;;;;;0.73;0.73;;;;;;;;;;5002048;28;20445;-80
2023/09/28 06:07:00;;;;;;;0.60;0.40;;;;;;;;;;5001107;28;20485;-76
2023/09/28 06:09:26;;;;;;;1.07;1.00;;;14.80;99.90;;;;;;4988008;28;20448;-80
2023/09/28 06:11:55;;;;;;;2.20;1.97;;;;;;;;;;5006842;28;20441;-76
2023/09/28 06:14:21;;;;;;;1.83;1.60;;;;;;;;;;5008361;28;20441;-77
2023/09/28 06:16:47;;;;;;;0.57;0.47;;;;;;;;;;5010119;28;20819;-76
2023/09/28 06:19:13;;;;;;;0.60;0.57;;;;;;;;;;5021509;28;20508;-80
2023/09/28 06:21:39;;;;;;;0.60;0.60;;;;;;;;;;4992134;28;20441;-81
2023/09/28 06:24:05;;;;;;;2.30;1.17;;;18.00;99.90;;;;;;5009416;28;20429;-79
2023/09/28 06:26:32;;;;;;;1.90;1.53;;;;;;;;;;5013505;28;20569;-80
2023/09/28 06:28:58;;;;;;;0.50;0.40;;;;;;;;;;5005485;28;20445;-77
2023/09/28 06:31:23;;;;;;;1.03;0.93;;;23.20;99.90;;;;;;4989475;28;21038;-83
2023/09/28 06:33:49;;;;;;;1.80;1.70;;;24.30;99.90;;;;;;5003744;28;20504;-82
2023/09/28 06:36:16;;;;;;;1.50;1.40;;;25.20;99.90;;;;;;5008886;28;20278;-83
2023/09/28 06:38:42;;;;;;;0.93;0.93;;;;;;;;;;4990108;28;20197;-78
2023/09/28 06:41:08;;;;;;;1.27;1.13;;;;;;;;;;5007046;28;20878;-82
2023/09/28 06:43:35;;;;;;;8.63;1.37;;;;;;;;;;5007491;28;20453;-82
2023/09/28 06:46:01;;;;;;;0.80;0.80;;;;;;;;;;4991968;28;20495;-80
2023/09/28 06:48:28;;;;;;;0.70;0.70;;;;;;;;;;4992582;28;20497;-76
2023/09/28 06:50:56;;;;;;;2.40;2.13;;;21.40;99.90;;;;;;5008887;28;20437;-80
2023/09/28 06:53:23;;;;;;;1.30;1.20;;;;;;;;;;5006471;28;20433;-79
2023/09/28 06:55:49;;;;;;;0.63;0.63;;;;;;;;;;4992331;28;21369;-78
2023/09/28 06:58:15;;;;;;;2.33;2.10;;;;;;;;;;5001703;28;20559;-82
2023/09/28 07:00:44;;;;;;;0.60;0.60;;;19.30;99.90;;;;;;4987528;28;20490;-79
2023/09/28 07:03:11;;;;;;;0.63;0.63;;;;;;;;;;5004199;28;20473;-77
2023/09/28 07:05:38;;;;;;;1.67;0.80;;;;;;;;;;4987725;28;20585;-79
2023/09/28 07:08:05;;;;;;;1.07;0.97;;;19.50;99.90;;;;;;5003689;28;20480;-79
2023/09/28 07:10:32;;;;;;;0.40;0.40;;;;;;;;;;5001465;28;20438;-80
2023/09/28 07:13:00;;;;;;;1.33;1.23;;;;;;;;;;4986605;28;20427;-78
2023/09/28 07:15:29;;;;;;;0.97;0.73;;;24.50;99.90;;;;;;4983295;28;20472;-81
2023/09/28 07:17:55;;;;;;;0.77;0.73;;;;;;;;;;4989624;28;20466;-84
2023/09/28 07:20:21;;;;;;;2.20;2.00;;;;;;;;;;5010105;28;20434;-75
2023/09/28 07:22:48;;;;;;;0.67;0.47;;;;;;;;;;4993108;28;20439;-79
2023/09/28 07:25:14;;;;;;;0.60;0.60;;;;;;;;;;4997378;28;20461;-79
2023/09/28 07:27:41;;;;;;;1.63;1.53;;;26.10;99.90;;;;;;5006499;28;20477;-78
2023/09/28 07:30:08;;;;;;;1.90;0.77;;;;;;;;;;5006914;28;20531;-80
2023/09/28 07:32:34;;;;;;;2.50;2.00;;;28.60;99.90;;;;;;4991066;28;20433;-79
2023/09/28 07:35:00;;;;;;;1.57;1.00;;;;;;;;;;4998877;28;20450;-77
2023/09/28 07:37:27;;;;;;;1.70;1.30;;;29.60;95.60;;;;;;5009208;28;20478;-78
2023/09/28 07:39:53;;;;;;;2.93;2.67;;;29.40;97.60;;;;;;5003151;28;20456;-80
2023/09/28 07:42:19;;;;;;;1.30;1.20;;;30.10;97.90;;;;;;5004421;28;20447;-81
2023/09/28 07:44:45;;;;;;;2.13;1.60;;;;;;;;;;5006124;28;20443;-78
2023/09/28 07:47:11;;;;;;;2.10;1.70;;;;;;;;;;4984491;28;20267;-81
2023/09/28 07:49:37;;;;;;;1.93;1.70;;;;;;;;;;5006351;28;20859;-78
2023/09/28 07:52:03;;;;;;;3.17;1.90;;;;;;;;;;4987214;28;20556;-81
2023/09/28 07:54:29;;;;;;;1.90;1.77;;;;;;;;;;4983298;28;20512;-78
2023/09/28 07:56:55;;;;;;;2.10;1.90;;;;;;;;;;5004462;28;21224;-82
2023/09/28 07:59:21;;;;;;;3.10;2.10;;;;;;;;;;4987735;28;20447;-81
2023/09/28 08:01:48;;;;;;;1.57;1.47;;;;;;;;;;5004024;28;20444;-80
2023/09/28 08:04:14;;;;;;;2.70;2.50;;;;;;;;;;5001571;28;20467;-82
2023/09/28 08:06:42;;;;;;;3.63;2.17;;;;;;;;;;4984464;28;20527;-81
2023/09/28 08:09:13;;;;;;;1.30;1.20;;;;;;;;;;4984519;28;20550;-84
2023/09/28 08:11:39;;;;;;;1.80;1.70;;;;;;;;;;4990777;28;20446;-80
2023/09/28 08:14:05;;;;;;;2.57;2.37;;;;;;;;;;4989298;28;20446;-82
2023/09/28 08:16:31;;;;;;;1.90;1.80;;;;;;;;;;5008610;28;20460;-79
2023/09/28 08:18:57;;;;;;;2.33;1.87;;;;;;;;;;5006235;28;20493;-81
2023/09/28 08:21:24;;;;;;;2.07;1.97;;;;;;;;;;4999806;28;20466;-82
2023/09/28 08:23:51;;;;;;;5.50;2.23;;;;;;;;;;4988718;28;20442;-81
2023/09/28 08:26:17;;;;;;;2.40;2.20;;;;;;;;;;5010049;28;20460;-80
2023/09/28 08:28:43;;;;;;;2.50;1.77;;;;;;;;;;5008007;28;20469;-79
2023/09/28 08:31:10;;;;;;;1.03;0.90;;;30.30;87.60;;;;;;5016067;28;20480;-79
2023/09/28 08:33:37;;;;;;;1.73;1.63;;;;;;;;;;5009382;28;20900;-80
2023/09/28 08:36:03;;;;;;;1.47;1.37;;;;;;;;;;4987111;28;20521;-83
2023/09/28 08:38:29;;;;;;;1.80;1.67;;;;;;;;;;4988939;28;20859;-82
2023/09/28 08:41:01;;;;;;;1.50;1.40;;;31.10;81.90;;;;;;4992858;28;20472;-80
2023/09/28 08:43:39;;;;;;;1.67;1.57;;;31.30;83.20;;;;;;5008859;28;20458;-85
2023/09/28 08:46:09;;;;;;;2.07;1.87;;;30.50;84.90;;;;;;5017012;28;20460;-84
2023/09/28 08:48:39;;;;;;;0.90;0.90;;;31.50;81.50;;;;;;5005056;28;20553;-77
2023/09/28 08:51:08;;;;;;;1.50;1.40;;;31.90;78.80;;;;;;4993340;28;20474;-81
2023/09/28 08:53:39;;;;;;;1.57;1.50;;;32.00;78.10;;;;;;4991899;28;21235;-80
2023/09/28 08:56:06;;;;;;;1.50;1.40;;;;;;;;;;5009343;28;20589;-78
2023/09/28 08:58:35;;;;;;;1.87;1.77;;;31.70;79.80;;;;;;4991867;28;20474;-82
2023/09/28 09:01:03;;;;;;;2.13;1.93;;;31.40;79.70;;;;;;5004341;28;20446;-83
2023/09/28 09:03:30;;;;;;;1.70;1.60;;;;;;;;;;5005660;28;20440;-82
2023/09/28 09:05:57;;;;;;;2.60;2.40;;;;;;;;;;4992619;28;20498;-82
2023/09/28 09:08:25;;;;;;;2.20;2.00;;;31.00;82.30;;;;;;4992480;28;20475;-82
2023/09/28 09:10:51;;;;;;;1.80;1.70;;;31.10;79.50;;;;;;5004328;28;20654;-84
2023/09/28 09:13:18;;;;;;;2.20;2.10;;;;;;;;;;5004795;28;20544;-80
2023/09/28 09:15:43;;;;;;;1.70;1.60;;;;;;;;;;5004724;28;21116;-84
2023/09/28 09:18:16;;;;;;;1.57;1.47;;;31.30;79.40;;;;;;4986671;28;20495;-81
2023/09/28 09:20:42;;;;;;;2.40;2.30;;;;;;;;;;4991719;28;20446;-84
2023/09/28 09:23:12;;;;;;;1.87;1.77;;;32.40;88.00;;;;;;4991109;28;20469;-83
2023/09/28 09:25:47;;;;;;;2.83;2.73;;;33.00;73.40;;;;;;4989275;28;20462;-80
2023/09/28 09:28:25;;;;;;;4.20;2.60;;;32.40;72.20;;;;;;4990100;28;20528;-84
2023/09/28 09:30:52;;;;;;;3.20;3.00;;;;;;;;;;5006580;28;20980;-83
2023/09/28 09:33:18;;;;;;;2.73;2.63;;;;;;;;;;5006049;28;20443;-82
2023/09/28 09:35:45;;;;;;;3.80;3.60;;;;;;;;;;5013835;28;20534;-78
2023/09/28 09:38:10;;;;;;;3.30;3.10;;;;;;;;;;4995139;28;20477;-81
2023/09/28 09:40:36;;;;;;;2.60;2.50;;;;;;;;;;4988835;28;20452;-85
2023/09/28 09:43:10;;;;;;;3.10;3.00;;;33.80;72.50;;;;;;5005899;28;20538;-84
2023/09/28 09:45:39;;;;;;;3.10;3.00;;;33.30;67.40;;;;;;5005054;28;20445;-82
2023/09/28 09:48:09;;;;;;;3.53;3.43;;;;;;;;;;5005855;28;20500;-79
2023/09/28 09:50:36;;;;;;;4.03;3.83;;;33.40;65.30;;;;;;5005502;28;20455;-86
2023/09/28 09:53:05;;;;;;;4.03;3.77;;;31.30;68.50;;;;;;5009347;28;20467;-83
2023/09/28 09:55:31;;;;;;;3.13;2.93;;;29.90;75.30;;;;;;4985767;28;20447;-80
2023/09/28 09:58:01;;;;;;;2.10;2.00;;;29.10;75.10;;;;;;5001366;28;20833;-84
2023/09/28 10:00:31;;;;;;;4.90;2.20;;;28.70;78.40;;;;;;5006202;28;20454;-79
2023/09/28 10:02:58;;;;;;;1.97;1.87;;;28.10;76.90;;;;;;5012517;28;21630;-84
2023/09/28 10:05:27;;;;;;;0.80;0.80;;;27.70;82.00;;;;;;4997196;28;20443;-81
2023/09/28 10:07:55;;;;;;;1.80;1.20;;;;;;;;;;5010967;28;20479;-81
2023/09/28 10:10:21;;;;;;;0.97;0.90;;;;;;;;;;4993057;28;20443;-85
2023/09/28 10:12:50;;;;;;;0.80;0.80;;;26.30;85.90;;;;;;4992578;28;20505;-82
2023/09/28 10:15:17;;;;;;;1.07;0.80;;;26.50;83.40;;;;;;4997922;28;20445;-84
2023/09/28 10:17:45;;;;;;;1.23;1.13;;;26.60;82.70;;;;;;5013663;28;20481;-86
2023/09/28 10:20:13;;;;;;;0.93;0.83;;;;;;;;;;4997928;28;21168;-88
2023/09/28 10:22:43;;;;;;;0.80;0.80;;;26.50;84.40;;;;;;4993234;28;20521;-79
2023/09/28 10:25:12;;;;;;;0.93;0.90;;;26.50;84.20;;;;;;5007370;28;20455;-79
2023/09/28 10:27:39;;;;;;;2.87;1.00;;;;;;;;;;5007744;28;20464;-80
2023/09/28 10:30:22;;;;;;;0.93;0.90;;;26.30;88.20;;;;;;5015835;28;20504;-84
2023/09/28 10:32:51;;;;;;;1.33;0.80;;;25.90;86.20;;;;;;4997452;28;20470;-84
2023/09/28 10:35:20;;;;;;;0.50;0.40;;;26.20;88.90;;;;;;4996669;28;20437;-81
2023/09/28 10:38:17;;;;;;;1.83;0.73;;;26.20;90.70;;;;;;4993010;28;20467;-86
2023/09/28 10:40:58;;;;;;;1.10;1.07;;;25.50;91.50;;;;;;5013293;28;20527;-83
2023/09/28 10:43:31;;;;;;;0.80;0.67;;;26.20;90.40;;;;;;5006043;28;21114;-82
2023/09/28 10:46:00;;;;;;;0.63;0.63;;;26.30;87.30;;;;;;4996267;28;20932;-82
2023/09/28 10:48:26;;;;;;;0.80;0.80;;;;;;;;;;5010428;28;20468;-80
2023/09/28 10:50:55;;;;;;;1.00;0.70;;;;;;;;;;4995949;28;20440;-82
2023/09/28 10:53:21;;;;;;;0.50;0.40;;;;;;;;;;5012668;28;20479;-82
2023/09/28 10:55:47;;;;;;;0.80;0.80;;;;;;;;;;4997663;28;20442;-84
2023/09/28 10:58:13;;;;;;;1.23;1.13;;;;;;;;;;4994594;28;20480;-85
2023/09/28 11:00:40;;;;;;;3.53;0.97;;;;;;;;;;4992305;28;20444;-85
2023/09/28 11:03:07;;;;;;;0.77;0.77;;;;;;;;;;4992429;28;20459;-83
2023/09/28 11:05:33;;;;;;;0.60;0.50;;;;;;;;;;4996303;28;20441;-82
2023/09/28 11:08:02;;;;;;;0.60;0.40;;;26.00;90.30;;;;;;4997575;28;20480;-82
2023/09/28 11:10:28;;;;;;;0.60;0.50;;;;;;;;;;5020868;28;20448;-77
2023/09/28 11:12:54;;;;;;;0.80;0.60;;;;;;;;;;4992966;28;20451;-83
2023/09/28 11:15:19;;;;;;;0.60;0.57;;;;;;;;;;4990766;28;20461;-82
2023/09/28 11:17:47;;;;;;;1.10;1.00;;;;;;;;;;4995626;28;20479;-83
2023/09/28 11:20:13;;;;;;;0.60;0.50;;;;;;;;;;4990916;28;20562;-83
2023/09/28 11:22:39;;;;;;;1.00;0.90;;;;;;;;;;4996073;28;20449;-81
2023/09/28 11:25:06;;;;;;;0.93;0.70;;;26.10;87.30;;;;;;4994788;28;20499;-82
2023/09/28 11:27:34;;;;;;;0.50;0.50;;;;;;;;;;5010207;28;21288;-83
2023/09/28 11:30:02;;;;;;;2.43;1.70;;;;;;;;;;4992172;28;20516;-85
2023/09/28 11:32:29;;;;;;;1.50;0.80;;;;;;;;;;4992948;28;20491;-84
2023/09/28 11:34:55;;;;;;;0.57;0.40;;;;;;;;;;5008968;28;20434;-83
2023/09/28 11:37:24;;;;;;;0.50;0.50;;;;;;;;;;4995910;28;20466;-84
2023/09/28 11:39:50;;;;;;;1.53;0.73;;;;;;;;;;5008498;28;20461;-79
2023/09/28 11:42:18;;;;;;;1.37;1.27;;;;;;;;;;4992742;28;20440;-79
2023/09/28 11:44:44;;;;;;;0.63;0.50;;;;;;;;;;5013030;28;20431;-82
2023/09/28 11:47:10;;;;;;;1.20;1.10;;;;;;;;;;5008734;28;21068;-82
2023/09/28 11:49:41;;;;;;;1.77;1.43;;;26.80;84.60;;;;;;4999764;28;20456;-78
2023/09/28 11:52:07;;;;;;;0.97;0.97;;;;;;;;;;4997971;28;20471;-82
2023/09/28 11:54:33;;;;;;;1.23;1.13;;;;;;;;;;5012002;28;20450;-81
2023/09/28 11:56:59;;;;;;;1.53;1.33;;;;;;;;;;5010606;28;20462;-87
2023/09/28 11:59:25;;;;;;;0.73;0.73;;;;;;;;;;5012862;28;20434;-80
2023/09/28 12:01:51;;;;;;;0.70;0.67;;;;;;;;;;5012528;28;20438;-79
2023/09/28 12:04:18;;;;;;;1.33;1.10;;;;;;;;;;5013678;28;20482;-80
2023/09/28 12:06:45;;;;;;;1.03;0.60;;;;;;;;;;5010094;28;20453;-83
2023/09/28 12:09:13;;;;;;;0.57;0.43;;;;;;;;;;5012827;28;20489;-77
2023/09/28 12:11:42;;;;;;;1.13;1.03;;;;;;;;;;5003891;28;20522;-80
2023/09/28 12:14:08;;;;;;;3.00;0.83;;;;;;;;;;5014750;28;20439;-82
2023/09/28 12:16:34;;;;;;;0.87;0.63;;;;;;;;;;5000666;28;20666;-85
2023/09/28 12:19:00;;;;;;;3.07;0.60;;;;;;;;;;5015818;28;20446;-85
2023/09/28 12:21:26;;;;;;;1.53;1.03;;;;;;;;;;5013515;28;20461;-81
2023/09/28 12:23:52;;;;;;;0.70;0.50;;;;;;;;;;5020440;28;20937;-82
2023/09/28 12:26:18;;;;;;;1.23;1.23;;;;;;;;;;4999426;28;20485;-81
2023/09/28 12:28:44;;;;;;;0.70;0.70;;;27.70;90.30;;;;;;5015661;28;20577;-80
2023/09/28 12:31:10;;;;;;;1.73;1.10;;;;;;;;;;5015526;28;20469;-79
2023/09/28 12:33:39;;;;;;;1.10;1.00;;;28.40;79.00;;;;;;5014947;28;20768;-80
2023/09/28 12:36:05;;;;;;;0.70;0.60;;;;;;;;;;5008290;28;20482;-83
2023/09/28 12:38:31;;;;;;;1.20;1.03;;;;;;;;;;4991103;28;20470;-78
2023/09/28 12:40:57;;;;;;;0.80;0.80;;;;;;;;;;5013346;28;20455;-81
2023/09/28 12:43:25;;;;;;;0.60;0.60;;;;;;;;;;4997394;28;21278;-81
2023/09/28 12:45:51;;;;;;;1.30;1.20;;;;;;;;;;4992474;28;20515;-79
2023/09/28 12:48:19;;;;;;;2.40;1.13;;;;;;;;;;4992578;28;20539;-80
2023/09/28 12:50:46;;;;;;;1.23;1.00;;;;;;;;;;4994502;28;20444;-80
2023/09/28 12:53:13;;;;;;;1.37;0.90;;;;;;;;;;4990999;28;20436;-81
2023/09/28 12:55:39;;;;;;;1.03;1.03;;;;;;;;;;4997738;28;20707;-77
2023/09/28 12:58:05;;;;;;;1.30;1.20;;;;;;;;;;4997536;28;20482;-82
2023/09/28 13:00:33;;;;;;;0.70;0.70;;;;;;;;;;4992716;28;20442;-87
2023/09/28 13:02:59;;;;;;;0.97;0.97;;;;;;;;;;5005359;28;21848;-80
2023/09/28 13:05:25;;;;;;;1.10;1.00;;;;;;;;;;4988223;28;20530;-82
2023/09/28 13:07:51;;;;;;;1.37;1.17;;;;;;;;;;4985336;28;20684;-81
2023/09/28 13:10:27;;;;;;;0.87;0.87;;;;;;;;;;5007558;28;20436;-84
2023/09/28 13:12:53;;;;;;;3.17;1.57;;;;;;;;;;4991819;28;20445;-78
2023/09/28 13:15:22;;;;;;;1.00;1.00;;;;;;;;;;4985718;28;20453;-85
2023/09/28 13:17:48;;;;;;;2.33;1.30;;;;;;;;;;5002050;28;20466;-79
2023/09/28 13:20:25;;;;;;;1.57;1.17;;;;;;;;;;5001287;28;20460;-85
2023/09/28 13:22:54;;;;;;;0.70;0.70;;;;;;;;;;5011198;28;20466;-84
2023/09/28 13:25:22;;;;;;;1.07;1.00;;;28.10;71.60;;;;;;4988833;28;20534;-81
2023/09/28 13:27:49;;;;;;;0.80;0.80;;;;;;;;;;5004831;28;21053;-83
2023/09/28 13:30:15;;;;;;;0.90;0.90;;;;;;;;;;4986515;28;20531;-80
2023/09/28 13:32:41;;;;;;;1.23;1.13;;;;;;;;;;5005164;28;20454;-84
2023/09/28 13:35:11;;;;;;;0.90;0.90;;;;;;;;;;5015393;28;20475;-78
2023/09/28 13:37:37;;;;;;;0.90;0.90;;;;;;;;;;5007652;28;20493;-81
2023/09/28 13:40:05;;;;;;;1.10;0.93;;;;;;;;;;4990337;28;20438;-79
2023/09/28 13:42:31;;;;;;;0.60;0.60;;;;;;;;;;4989883;28;20537;-79
2023/09/28 13:44:59;;;;;;;0.80;0.80;;;;;;;;;;4987592;28;20435;-84
2023/09/28 13:47:26;;;;;;;1.27;1.07;;;27.80;73.60;;;;;;4987515;28;20469;-83
2023/09/28 13:49:55;;;;;;;0.80;0.70;;;;;;;;;;5016719;28;20842;-80
2023/09/28 13:52:21;;;;;;;1.20;1.10;;;;;;;;;;4997573;28;20480;-81
2023/09/28 13:54:47;;;;;;;1.00;0.90;;;;;;;;;;4999746;28;20930;-83
2023/09/28 13:57:14;;;;;;;1.47;1.37;;;;;;;;;;4992520;28;20500;-84
2023/09/28 13:59:40;;;;;;;1.47;1.37;;;;;;;;;;4993437;28;20569;-85
2023/09/28 14:02:08;;;;;;;0.60;0.60;;;;;;;;;;5010061;28;20457;-77